Time;durP1;ratioP1;P1;durP2;ratioP2;P2;SDS_P1;SDS_P2;PMS_P1;PMS_P2;Temp;Humidity;BMP_temperature;BMP_pressure;BME280_temperature;BME280_humidity;BME280_pressure;Samples;Min_cycle;Max_cycle;Signal;HPM_P1;HPM_P2
2023/02/08 05:30:48;;;;;;;11.57;8.18;;;1.90;69.30;;;;;;5670453;23;20047;-81
2023/02/08 05:33:14;;;;;;;15.75;9.48;;;1.90;69.40;;;;;;4928721;29;20487;-81
2023/02/08 05:35:39;;;;;;;12.95;7.35;;;1.90;69.40;;;;;;4936082;29;20106;-81
2023/02/08 05:38:06;;;;;;;13.27;8.25;;;1.80;69.30;;;;;;4925428;29;20059;-80
2023/02/08 05:40:33;;;;;;;13.95;8.20;;;1.80;69.30;;;;;;4918574;29;20036;-80
2023/02/08 05:42:58;;;;;;;15.32;9.30;;;1.70;69.50;;;;;;4918594;29;20466;-80
2023/02/08 05:45:24;;;;;;;15.30;8.30;;;1.70;69.50;;;;;;4920122;29;20043;-82
2023/02/08 05:47:49;;;;;;;15.10;9.73;;;1.70;69.50;;;;;;4922194;29;20450;-79
2023/02/08 05:50:15;;;;;;;16.95;8.70;;;1.70;69.80;;;;;;4922296;29;20050;-79
2023/02/08 05:52:41;;;;;;;18.98;9.75;;;1.70;69.80;;;;;;4924319;29;20428;-80
2023/02/08 05:55:07;;;;;;;15.98;9.05;;;1.70;69.80;;;;;;4929263;29;20051;-78
2023/02/08 05:57:33;;;;;;;21.17;9.23;;;1.70;69.90;;;;;;4940695;29;20498;-78
2023/02/08 05:59:58;;;;;;;14.70;9.70;;;1.80;69.80;;;;;;4940199;29;20550;-79
2023/02/08 06:02:24;;;;;;;23.00;12.38;;;1.80;69.50;;;;;;4943480;29;20028;-83
2023/02/08 06:04:50;;;;;;;15.07;10.48;;;1.80;69.30;;;;;;4948189;29;20028;-83
2023/02/08 06:07:28;;;;;;;;;;;;;;;;;;;;;
2023/02/08 06:09:54;;;;;;;20.27;11.23;;;1.70;69.40;;;;;;4921747;29;20510;-83
2023/02/08 06:12:23;;;;;;;24.17;11.65;;;1.60;69.70;;;;;;4944315;29;20059;-79
2023/02/08 06:14:48;;;;;;;18.10;10.88;;;1.60;70.00;;;;;;4941185;29;20086;-84
2023/02/08 06:17:14;;;;;;;21.58;11.02;;;1.60;70.10;;;;;;4939048;29;20506;-77
2023/02/08 06:19:40;;;;;;;26.90;10.98;;;1.60;70.10;;;;;;4936919;29;20110;-81
2023/02/08 06:22:05;;;;;;;23.02;10.45;;;1.60;70.20;;;;;;4925333;29;20051;-82
2023/02/08 06:24:31;;;;;;;16.50;11.30;;;1.70;70.20;;;;;;4924710;29;20059;-82
2023/02/08 06:26:57;;;;;;;16.98;11.45;;;1.70;70.00;;;;;;4938572;29;20090;-82
2023/02/08 06:29:22;;;;;;;17.20;10.90;;;1.70;70.10;;;;;;4931760;29;20044;-88
2023/02/08 06:31:48;;;;;;;20.08;12.02;;;1.70;70.10;;;;;;4923409;29;20044;-86
2023/02/08 06:34:14;;;;;;;24.10;11.25;;;1.70;70.10;;;;;;4938794;29;20042;-87
2023/02/08 06:36:39;;;;;;;23.17;10.70;;;1.70;70.20;;;;;;4949397;29;20051;-86
2023/02/08 06:39:05;;;;;;;16.35;10.02;;;1.70;70.00;;;;;;4960520;29;20027;-85
2023/02/08 06:41:31;;;;;;;22.17;11.05;;;1.70;70.00;;;;;;4955398;29;20103;-83
2023/02/08 06:43:58;;;;;;;20.98;11.10;;;1.70;70.00;;;;;;4920726;29;20056;-86
2023/02/08 06:46:26;;;;;;;21.50;10.93;;;1.80;69.80;;;;;;4922940;29;20141;-86
2023/02/08 06:48:52;;;;;;;25.27;11.35;;;1.80;69.80;;;;;;4920756;29;20514;-88
2023/02/08 06:51:18;;;;;;;22.25;12.02;;;1.80;69.70;;;;;;4922242;29;20074;-86
2023/02/08 06:53:43;;;;;;;17.52;12.00;;;1.80;69.70;;;;;;4923979;29;20099;-87
2023/02/08 06:56:09;;;;;;;32.00;14.25;;;1.70;69.80;;;;;;4919400;29;20032;-87
2023/02/08 06:58:34;;;;;;;32.40;16.45;;;1.70;69.80;;;;;;4935114;29;20035;-87
2023/02/08 07:01:00;;;;;;;23.88;12.60;;;1.70;70.00;;;;;;4947360;29;20031;-88
2023/02/08 07:03:33;;;;;;;20.50;10.63;;;1.70;70.20;;;;;;4955827;29;20036;-89
2023/02/08 07:05:58;;;;;;;21.45;13.07;;;1.70;70.10;;;;;;4941191;29;20023;-88
2023/02/08 07:08:24;;;;;;;25.48;14.00;;;1.70;70.30;;;;;;4940273;29;20047;-77
2023/02/08 07:10:50;;;;;;;23.10;11.77;;;1.70;70.30;;;;;;4945234;29;20023;-77
2023/02/08 07:13:15;;;;;;;21.42;11.07;;;1.70;70.30;;;;;;4940552;29;20047;-75
2023/02/08 07:15:47;;;;;;;22.13;12.13;;;1.70;70.20;;;;;;4940022;29;20043;-83
2023/02/08 07:18:16;;;;;;;19.23;11.75;;;1.70;70.00;;;;;;4938352;29;20058;-88
2023/02/08 07:20:41;;;;;;;22.23;13.18;;;1.70;69.80;;;;;;4938788;29;20115;-77
2023/02/08 07:23:07;;;;;;;20.13;10.68;;;1.60;70.00;;;;;;4939273;29;20122;-80
2023/02/08 07:25:33;;;;;;;21.70;11.07;;;1.60;70.50;;;;;;4939788;29;20020;-78
2023/02/08 07:27:58;;;;;;;19.17;11.88;;;1.60;70.60;;;;;;4939857;29;20493;-75
2023/02/08 07:30:24;;;;;;;22.38;12.15;;;1.60;70.60;;;;;;4938733;29;20028;-76
2023/02/08 07:32:50;;;;;;;25.10;12.63;;;1.60;70.40;;;;;;4939335;29;20047;-76
2023/02/08 07:35:15;;;;;;;17.77;11.18;;;1.60;70.50;;;;;;4939494;29;20082;-76
2023/02/08 07:37:41;;;;;;;18.50;10.00;;;1.70;70.70;;;;;;4931151;29;20024;-77
2023/02/08 07:40:07;;;;;;;20.83;10.45;;;1.70;70.70;;;;;;4939337;29;20398;-76
2023/02/08 07:42:33;;;;;;;25.55;11.30;;;1.70;70.70;;;;;;4937710;29;20570;-76
2023/02/08 07:44:58;;;;;;;27.38;12.98;;;1.80;70.60;;;;;;4929624;29;20036;-76
2023/02/08 07:47:24;;;;;;;26.42;13.80;;;1.80;70.40;;;;;;4922419;29;20511;-76
2023/02/08 07:49:49;;;;;;;26.42;12.63;;;1.70;70.30;;;;;;4925605;29;20471;-76
2023/02/08 07:52:15;;;;;;;26.70;11.93;;;1.70;70.40;;;;;;4939228;29;20046;-76
2023/02/08 07:54:41;;;;;;;23.70;11.50;;;1.70;70.30;;;;;;4939024;29;20023;-78
2023/02/08 07:57:07;;;;;;;22.67;12.68;;;1.70;70.50;;;;;;4938583;29;20031;-78
2023/02/08 07:59:32;;;;;;;23.70;12.80;;;1.80;70.40;;;;;;4937714;29;20379;-78
2023/02/08 08:01:58;;;;;;;18.70;11.48;;;1.80;70.50;;;;;;4953391;29;20038;-78
2023/02/08 08:04:23;;;;;;;26.52;12.45;;;1.80;70.50;;;;;;4944035;29;20028;-78
2023/02/08 08:06:50;;;;;;;31.50;15.52;;;1.80;70.40;;;;;;4931636;29;20407;-78
2023/02/08 08:09:16;;;;;;;25.65;15.70;;;1.90;70.30;;;;;;4918895;29;20054;-78
2023/02/08 08:11:41;;;;;;;28.50;14.82;;;1.80;70.50;;;;;;4944707;29;20074;-78
2023/02/08 08:14:07;;;;;;;15.40;11.48;;;1.80;70.50;;;;;;4957948;29;20020;-78
2023/02/08 08:16:32;;;;;;;16.52;10.20;;;1.80;70.70;;;;;;4947294;29;20087;-78
2023/02/08 08:18:58;;;;;;;25.95;12.05;;;1.80;70.80;;;;;;4938734;29;20570;-78
2023/02/08 08:21:24;;;;;;;28.08;14.00;;;1.90;70.80;;;;;;4938220;29;20590;-78
2023/02/08 08:23:49;;;;;;;24.15;15.02;;;2.00;70.70;;;;;;4938305;29;20036;-79
2023/02/08 08:26:18;;;;;;;27.83;14.82;;;2.10;70.50;;;;;;4938553;29;20088;-78
2023/02/08 08:28:45;;;;;;;36.05;15.30;;;2.10;70.30;;;;;;4932503;29;20032;-78
2023/02/08 08:31:17;;;;;;;28.90;16.58;;;2.20;70.50;;;;;;4919520;29;20056;-78
2023/02/08 08:33:43;;;;;;;23.52;13.13;;;2.20;70.60;;;;;;4932501;29;20028;-78
2023/02/08 08:36:09;;;;;;;23.05;13.50;;;2.30;70.50;;;;;;4919522;29;20024;-78
2023/02/08 08:38:37;;;;;;;21.67;11.07;;;2.30;70.40;;;;;;4919759;29;20028;-78
2023/02/08 08:41:10;;;;;;;23.95;11.20;;;2.30;70.20;;;;;;4919479;29;20083;-78
2023/02/08 08:43:36;;;;;;;12.77;9.75;;;2.40;70.00;;;;;;4934127;29;20028;-79
2023/02/08 08:46:05;;;;;;;16.25;10.20;;;2.40;70.10;;;;;;4919283;29;20028;-78
2023/02/08 08:48:31;;;;;;;18.70;8.40;;;2.40;70.30;;;;;;4928057;29;20052;-78
2023/02/08 08:50:57;;;;;;;22.98;10.02;;;2.50;70.50;;;;;;4937293;29;20050;-78
2023/02/08 08:53:23;;;;;;;13.88;9.25;;;2.70;69.90;;;;;;4938322;29;20024;-77
2023/02/08 08:55:48;;;;;;;19.40;12.50;;;3.20;69.40;;;;;;4936471;29;20039;-78
2023/02/08 08:58:14;;;;;;;18.95;9.77;;;3.70;68.20;;;;;;4937820;29;20058;-78
2023/02/08 09:00:40;;;;;;;14.82;9.23;;;4.10;66.90;;;;;;4942408;29;20034;-78
2023/02/08 09:03:05;;;;;;;34.15;17.95;;;4.20;66.40;;;;;;4939024;29;20521;-78
2023/02/08 09:05:31;;;;;;;23.83;13.27;;;4.00;67.00;;;;;;4919360;29;20376;-78
2023/02/08 09:07:56;;;;;;;22.90;12.63;;;3.80;67.20;;;;;;4919220;29;20394;-78
2023/02/08 09:10:22;;;;;;;27.15;14.68;;;3.70;67.60;;;;;;4923110;29;20127;-78
2023/02/08 09:12:48;;;;;;;28.27;15.40;;;3.60;68.20;;;;;;4944627;29;20032;-78
2023/02/08 09:15:13;;;;;;;40.35;21.45;;;3.60;68.70;;;;;;4937738;29;20035;-78
2023/02/08 09:17:39;;;;;;;26.63;15.48;;;3.70;68.70;;;;;;4938221;29;20027;-78
2023/02/08 09:20:05;;;;;;;31.38;16.42;;;3.80;68.60;;;;;;4940526;29;20053;-78
2023/02/08 09:22:31;;;;;;;31.05;15.60;;;3.90;68.60;;;;;;4941871;29;20020;-78
2023/02/08 09:24:57;;;;;;;29.15;16.35;;;4.30;68.10;;;;;;4941310;29;20024;-78
2023/02/08 09:27:22;;;;;;;32.70;18.05;;;4.80;67.10;;;;;;4941680;29;20518;-78
2023/02/08 09:29:48;;;;;;;23.20;15.10;;;5.60;65.80;;;;;;4941624;29;20055;-78
2023/02/08 09:32:13;;;;;;;19.85;12.30;;;6.20;64.20;;;;;;4932191;29;20536;-79
2023/02/08 09:34:39;;;;;;;17.52;13.00;;;7.00;61.90;;;;;;4941604;29;20058;-76
2023/02/08 09:37:05;;;;;;;18.25;13.05;;;7.60;59.80;;;;;;4928804;29;20395;-76
2023/02/08 09:39:31;;;;;;;21.38;12.52;;;8.30;58.00;;;;;;4922698;29;20028;-76
2023/02/08 09:42:21;;;;;;;24.85;12.63;;;8.80;56.90;;;;;;4921162;29;20084;-76
2023/02/08 09:45:24;;;;;;;20.35;12.45;;;9.20;55.90;;;;;;4925044;29;20078;-76
2023/02/08 09:48:07;;;;;;;16.88;10.65;;;9.30;55.10;;;;;;4941444;29;20051;-77
2023/02/08 09:50:44;;;;;;;19.85;13.13;;;9.40;54.30;;;;;;4936114;29;20095;-77
2023/02/08 09:53:10;;;;;;;18.23;12.43;;;9.90;53.20;;;;;;4922996;29;20024;-77
2023/02/08 09:55:54;;;;;;;15.52;11.63;;;10.60;50.80;;;;;;4939154;29;20032;-77
2023/02/08 09:58:22;;;;;;;18.10;12.38;;;11.10;50.30;;;;;;4941283;29;20058;-78
2023/02/08 10:00:50;;;;;;;18.65;11.90;;;11.40;48.50;;;;;;4945965;29;20031;-77
2023/02/08 10:03:28;;;;;;;18.58;12.30;;;11.60;48.90;;;;;;4943711;29;20028;-77
2023/02/08 10:05:54;;;;;;;15.30;11.15;;;11.50;48.90;;;;;;4941146;29;20046;-77
2023/02/08 10:08:20;;;;;;;17.38;10.40;;;11.40;48.70;;;;;;4935846;29;20032;-77
2023/02/08 10:10:54;;;;;;;15.10;9.45;;;11.20;48.00;;;;;;4932286;29;20023;-78
2023/02/08 10:13:37;;;;;;;15.65;9.77;;;10.80;47.40;;;;;;4959183;29;20033;-77
2023/02/08 10:16:38;;;;;;;16.75;9.82;;;10.50;48.30;;;;;;4947240;28;20116;-77
2023/02/08 10:19:09;;;;;;;;;;;10.00;47.90;;;;;;4941444;29;20083;-77
2023/02/08 10:21:44;;;;;;;20.38;10.35;;;9.50;49.60;;;;;;4940860;29;19970;-77
2023/02/08 10:24:37;;;;;;;18.38;9.65;;;9.00;50.30;;;;;;4940222;29;20042;-77
2023/02/08 10:27:22;;;;;;;17.33;9.30;;;8.30;51.30;;;;;;4940728;29;20103;-77
2023/02/08 10:29:48;;;;;;;20.30;11.82;;;7.90;52.90;;;;;;4939659;29;20028;-77
2023/02/08 10:32:17;;;;;;;23.52;10.55;;;7.60;53.10;;;;;;4936953;29;20052;-77
2023/02/08 10:34:51;;;;;;;20.30;10.98;;;7.30;54.20;;;;;;4921870;29;20039;-77
2023/02/08 10:37:26;;;;;;;14.75;8.70;;;7.20;55.10;;;;;;4922048;29;20055;-77
2023/02/08 10:39:53;;;;;;;15.77;9.35;;;7.00;55.20;;;;;;4920681;29;20115;-77
2023/02/08 10:42:21;;;;;;;19.65;9.98;;;7.00;56.30;;;;;;4920314;29;20039;-77
2023/02/08 10:44:59;;;;;;;19.20;9.60;;;7.00;56.40;;;;;;4920241;29;20032;-78
2023/02/08 10:47:43;;;;;;;17.77;9.00;;;7.00;57.10;;;;;;4921754;29;20063;-77
2023/02/08 10:50:18;;;;;;;15.93;8.63;;;7.00;56.60;;;;;;4920131;29;20024;-77
2023/02/08 10:52:44;;;;;;;14.63;8.43;;;6.90;54.60;;;;;;4921419;29;20571;-78
2023/02/08 10:55:18;;;;;;;16.30;8.82;;;6.80;55.40;;;;;;4929144;29;20082;-77
2023/02/08 10:57:46;;;;;;;16.40;8.05;;;6.90;56.30;;;;;;4940294;29;20039;-77
2023/02/08 11:00:30;;;;;;;17.08;7.90;;;6.90;56.30;;;;;;4940746;29;20031;-78
2023/02/08 11:03:00;;;;;;;12.75;7.15;;;7.00;57.10;;;;;;4939847;28;20044;-78
2023/02/08 11:05:33;;;;;;;12.88;6.78;;;7.20;56.30;;;;;;4920133;29;20032;-77
2023/02/08 11:08:09;;;;;;;12.40;6.78;;;7.20;55.30;;;;;;4930209;29;20040;-77
2023/02/08 11:10:37;;;;;;;14.20;7.80;;;7.20;55.40;;;;;;4942361;29;20505;-78
2023/02/08 11:13:16;;;;;;;11.60;6.97;;;7.20;55.10;;;;;;4944680;29;20039;-78
2023/02/08 11:15:51;;;;;;;13.60;7.70;;;7.20;54.90;;;;;;4939911;29;20067;-77
2023/02/08 11:18:22;;;;;;;15.02;7.22;;;7.20;55.90;;;;;;4925656;29;20047;-77
2023/02/08 11:20:51;;;;;;;12.63;7.30;;;7.30;55.80;;;;;;4939722;29;20082;-78
2023/02/08 11:23:24;;;;;;;19.10;10.32;;;7.30;55.50;;;;;;4928997;29;20038;-78
2023/02/08 11:25:51;;;;;;;21.60;11.18;;;7.40;57.20;;;;;;4919605;29;20064;-78
2023/02/08 11:28:27;;;;;;;18.85;9.93;;;7.50;59.00;;;;;;4920838;29;20547;-78
2023/02/08 11:30:59;;;;;;;17.35;10.68;;;7.60;58.50;;;;;;4919395;29;20047;-78
2023/02/08 11:33:26;;;;;;;17.33;9.52;;;7.60;58.20;;;;;;4936891;29;20051;-78
2023/02/08 11:36:01;;;;;;;20.17;11.25;;;7.70;58.90;;;;;;4939723;29;20100;-78
2023/02/08 11:38:27;;;;;;;17.20;10.43;;;7.70;60.40;;;;;;4934681;29;20036;-78
2023/02/08 11:40:57;;;;;;;23.73;11.30;;;7.70;59.50;;;;;;4920631;29;20032;-79
2023/02/08 11:43:50;;;;;;;23.27;12.38;;;7.80;59.80;;;;;;4919957;29;20046;-78
2023/02/08 11:46:23;;;;;;;20.98;10.90;;;7.80;59.40;;;;;;4924083;29;20035;-78
2023/02/08 11:48:51;;;;;;;21.98;11.55;;;7.80;59.80;;;;;;4936268;29;20547;-78
2023/02/08 11:51:31;;;;;;;16.77;9.52;;;7.80;60.00;;;;;;4922646;29;20023;-78
2023/02/08 11:53:59;;;;;;;18.25;10.50;;;7.80;60.70;;;;;;4937249;29;20407;-78
2023/02/08 11:56:29;;;;;;;20.10;11.02;;;7.80;59.60;;;;;;4938572;29;20062;-77
2023/02/08 11:59:26;;;;;;;21.10;10.60;;;7.80;59.20;;;;;;4939202;29;20094;-77
2023/02/08 12:01:52;;;;;;;23.42;11.38;;;7.80;59.90;;;;;;4932761;29;20526;-78
2023/02/08 12:04:18;;;;;;;29.02;11.60;;;7.80;59.00;;;;;;4939211;29;20107;-77
2023/02/08 12:07:23;;;;;;;20.35;10.63;;;7.80;59.70;;;;;;4939115;29;20031;-77
2023/02/08 12:10:22;;;;;;;18.17;9.65;;;7.90;59.20;;;;;;4925414;29;20039;-77
2023/02/08 12:12:57;;;;;;;19.40;10.07;;;7.80;58.40;;;;;;4920068;29;20036;-77
2023/02/08 12:15:37;;;;;;;19.23;10.65;;;7.90;59.40;;;;;;4937654;29;20115;-76
2023/02/08 12:18:16;;;;;;;22.48;11.52;;;7.90;59.40;;;;;;4937875;29;20398;-76
2023/02/08 12:20:45;;;;;;;25.05;11.73;;;8.00;59.00;;;;;;4938488;29;20060;-76
2023/02/08 12:23:42;;;;;;;18.70;9.88;;;8.00;59.00;;;;;;4937530;29;20023;-76
2023/02/08 12:26:22;;;;;;;24.73;11.65;;;8.10;59.80;;;;;;4938504;29;20027;-77
2023/02/08 12:29:18;;;;;;;19.67;9.70;;;8.10;59.50;;;;;;4937880;29;20034;-88
2023/02/08 12:31:53;;;;;;;18.85;10.70;;;8.10;59.20;;;;;;4936870;29;20331;-88
2023/02/08 12:34:35;;;;;;;16.40;10.07;;;8.10;58.70;;;;;;4937618;29;20074;-88
2023/02/08 12:40:51;;;;;;;19.20;10.57;;;8.20;59.20;;;;;;4926825;29;20043;-89
2023/02/08 12:43:38;;;;;;;21.90;10.57;;;8.20;58.60;;;;;;4918561;29;20032;-90
2023/02/08 12:46:31;;;;;;;16.30;10.75;;;8.20;57.70;;;;;;4919934;29;20028;-88
2023/02/08 12:49:16;;;;;;;19.15;9.80;;;8.10;57.40;;;;;;4935301;29;20126;-89
2023/02/08 12:51:51;;;;;;;18.40;9.60;;;8.10;57.50;;;;;;4935663;29;20035;-88
2023/02/08 12:55:07;;;;;;;17.58;9.35;;;8.20;57.60;;;;;;4938969;29;20043;-88
2023/02/08 12:57:34;;;;;;;19.80;9.80;;;8.20;58.40;;;;;;4927581;29;20035;-89
2023/02/08 13:00:14;;;;;;;26.05;12.10;;;8.20;58.20;;;;;;4943614;29;20024;-89
2023/02/08 13:02:57;;;;;;;19.42;9.93;;;8.30;57.90;;;;;;4938985;29;20059;-88
2023/02/08 13:05:27;;;;;;;15.55;9.52;;;8.30;57.80;;;;;;4941650;29;20040;-88
2023/02/08 13:08:02;;;;;;;18.02;10.02;;;8.40;57.90;;;;;;4941380;29;20516;-89
2023/02/08 13:10:33;;;;;;;25.38;9.60;;;8.50;57.90;;;;;;4941444;29;20032;-90
2023/02/08 13:13:11;;;;;;;22.10;10.65;;;8.50;57.60;;;;;;4942437;29;20102;-88
2023/02/08 13:15:42;;;;;;;21.05;11.45;;;8.60;57.50;;;;;;4938280;29;20024;-88
2023/02/08 13:18:22;;;;;;;22.15;10.18;;;8.60;57.20;;;;;;4922789;29;20059;-88
2023/02/08 13:20:57;;;;;;;25.17;11.00;;;8.60;57.00;;;;;;4922994;29;20032;-89
2023/02/08 13:23:27;;;;;;;19.60;10.40;;;8.70;56.90;;;;;;4923694;29;20032;-90
2023/02/08 13:26:00;;;;;;;18.33;9.82;;;8.70;57.20;;;;;;4937988;29;20495;-89
2023/02/08 13:28:26;;;;;;;24.15;10.27;;;8.70;57.30;;;;;;4922190;29;20056;-88
2023/02/08 13:30:58;;;;;;;18.15;11.35;;;8.80;57.10;;;;;;4937019;29;20525;-90
2023/02/08 13:33:40;;;;;;;26.52;13.07;;;8.80;57.10;;;;;;4942985;29;20043;-89
2023/02/08 13:36:18;;;;;;;22.73;12.30;;;8.80;56.90;;;;;;4940523;29;20066;-89
2023/02/08 13:38:47;;;;;;;24.83;11.27;;;8.90;56.70;;;;;;4922405;29;20115;-89
2023/02/08 13:41:19;;;;;;;21.90;10.98;;;8.90;55.90;;;;;;4927405;29;20031;-90
2023/02/08 13:43:54;;;;;;;25.90;12.77;;;8.90;55.40;;;;;;4937898;29;20024;-89
2023/02/08 13:46:21;;;;;;;21.13;11.50;;;8.90;55.90;;;;;;4922340;29;20024;-89
2023/02/08 13:48:59;;;;;;;19.35;10.18;;;8.90;55.80;;;;;;4923573;29;20028;-89
2023/02/08 13:51:30;;;;;;;19.33;10.52;;;8.90;56.00;;;;;;4923265;29;20031;-89
2023/02/08 13:53:56;;;;;;;19.77;11.30;;;9.00;55.70;;;;;;4923257;29;20039;-89
2023/02/08 13:56:48;;;;;;;17.98;10.25;;;9.00;55.90;;;;;;4937527;29;20032;-88
2023/02/08 13:59:24;;;;;;;19.48;10.13;;;9.10;55.30;;;;;;4921716;29;20043;-88
2023/02/08 14:02:27;;;;;;;22.60;10.15;;;9.10;55.20;;;;;;4944666;29;20063;-88
2023/02/08 14:05:16;;;;;;;16.15;8.80;;;9.10;55.50;;;;;;4940195;29;20035;-88
2023/02/08 14:07:45;;;;;;;18.63;9.48;;;9.10;56.00;;;;;;4933690;29;20510;-89
2023/02/08 14:10:21;;;;;;;20.40;9.25;;;9.20;55.10;;;;;;4922652;29;20032;-90
2023/02/08 14:12:57;;;;;;;18.33;8.32;;;9.20;54.90;;;;;;4959344;29;20434;-89
2023/02/08 14:15:24;;;;;;;18.75;8.88;;;9.20;54.60;;;;;;4937348;29;20028;-89
2023/02/08 14:17:55;;;;;;;14.85;8.65;;;9.20;54.50;;;;;;4937364;29;20504;-88
2023/02/08 14:20:40;;;;;;;16.30;8.38;;;9.20;54.20;;;;;;4936259;29;20115;-88
2023/02/08 14:23:21;;;;;;;15.10;8.27;;;9.20;54.40;;;;;;4921372;29;20143;-90
2023/02/08 14:25:48;;;;;;;;;;;9.20;54.00;;;;;;4922411;29;20024;-88
2023/02/08 14:28:34;;;;;;;13.80;7.72;;;9.20;54.20;;;;;;4922159;29;19927;-88
2023/02/08 14:31:04;;;;;;;16.35;7.97;;;9.20;54.10;;;;;;4920969;29;20514;-89
2023/02/08 14:33:36;;;;;;;16.27;8.50;;;9.20;54.50;;;;;;4924739;29;20028;-89
2023/02/08 14:36:05;;;;;;;19.73;9.60;;;9.20;54.60;;;;;;4929491;29;20287;-87
2023/02/08 14:38:51;;;;;;;18.85;9.57;;;9.20;54.60;;;;;;4951225;29;20035;-87
2023/02/08 14:42:02;;;;;;;17.50;9.60;;;9.20;54.60;;;;;;4937793;29;20115;-89
2023/02/08 14:44:37;;;;;;;15.38;7.28;;;9.30;54.70;;;;;;4938632;29;20015;-90
2023/02/08 14:47:30;;;;;;;18.10;8.63;;;9.20;54.60;;;;;;4947915;29;20043;-87
2023/02/08 14:50:07;;;;;;;14.30;7.82;;;9.20;55.10;;;;;;4915987;29;20036;-76
2023/02/08 14:52:34;;;;;;;14.07;6.75;;;9.20;54.60;;;;;;4931144;29;20036;-78
2023/02/08 14:55:10;;;;;;;13.55;8.02;;;9.20;54.20;;;;;;4934458;29;20075;-78
2023/02/08 14:57:39;;;;;;;13.10;7.97;;;9.30;53.90;;;;;;4930859;29;20443;-77
2023/02/08 15:00:15;;;;;;;10.82;7.30;;;9.30;53.80;;;;;;4929290;29;20031;-78
2023/02/08 15:02:44;;;;;;;14.05;8.05;;;9.20;53.60;;;;;;4933978;29;20035;-78
2023/02/08 15:05:20;;;;;;;12.70;8.02;;;9.20;54.00;;;;;;4929212;29;20038;-77
2023/02/08 15:07:51;;;;;;;15.77;8.00;;;9.20;54.30;;;;;;4927952;29;20494;-78
2023/02/08 15:10:17;;;;;;;;;;;9.20;54.70;;;;;;4933639;29;20391;-79
2023/02/08 15:12:52;;;;;;;15.60;7.50;;;9.30;54.50;;;;;;4931487;29;19916;-78
2023/02/08 15:15:23;;;;;;;14.00;8.77;;;9.30;54.40;;;;;;4938678;29;20498;-79
2023/02/08 15:17:51;;;;;;;13.73;8.60;;;9.30;54.40;;;;;;4929147;29;20068;-79
2023/02/08 15:20:26;;;;;;;18.20;8.93;;;9.30;54.10;;;;;;4938034;29;20032;-78
2023/02/08 15:23:05;;;;;;;14.52;8.43;;;9.30;54.30;;;;;;4939045;29;20035;-78
2023/02/08 15:25:33;;;;;;;11.75;7.38;;;9.30;54.40;;;;;;4920507;29;20499;-78
2023/02/08 15:28:13;;;;;;;15.18;7.70;;;9.40;54.10;;;;;;4930242;29;20031;-78
2023/02/08 15:30:39;;;;;;;13.18;8.25;;;9.40;53.80;;;;;;4937096;29;20067;-78
2023/02/08 15:33:19;;;;;;;16.20;8.40;;;9.30;53.30;;;;;;4938028;29;20035;-78
2023/02/08 15:35:54;;;;;;;;;;;9.30;52.80;;;;;;4938604;29;20091;-79
2023/02/08 15:38:22;;;;;;;11.45;7.63;;;9.30;53.10;;;;;;4930988;29;19915;-78
2023/02/08 15:41:08;;;;;;;14.48;6.70;;;9.30;52.40;;;;;;4926857;29;20030;-78
2023/02/08 15:43:35;;;;;;;11.07;6.47;;;9.40;52.00;;;;;;4937673;29;20035;-79
2023/02/08 15:46:04;;;;;;;11.43;6.85;;;9.40;51.80;;;;;;4939138;29;20034;-78
2023/02/08 15:48:31;;;;;;;13.07;7.32;;;9.40;51.50;;;;;;4935537;29;20083;-78
2023/02/08 15:50:58;;;;;;;16.08;7.90;;;9.30;51.40;;;;;;4938808;29;20020;-78
2023/02/08 15:53:25;;;;;;;14.63;6.78;;;9.30;51.70;;;;;;4937638;29;20040;-78
2023/02/08 15:56:01;;;;;;;14.00;7.15;;;9.20;51.80;;;;;;4937825;29;20046;-78
2023/02/08 15:58:31;;;;;;;14.63;6.97;;;9.30;51.90;;;;;;4937689;29;20090;-78
2023/02/08 16:00:59;;;;;;;15.30;7.82;;;9.20;52.20;;;;;;4944875;29;20405;-78
2023/02/08 16:03:26;;;;;;;15.15;7.65;;;9.20;52.20;;;;;;4938178;28;20114;-78
2023/02/08 16:06:02;;;;;;;12.27;7.70;;;9.20;52.10;;;;;;4931333;29;20048;-78
2023/02/08 16:08:34;;;;;;;11.52;6.93;;;9.10;52.20;;;;;;4937507;29;20035;-77
2023/02/08 16:11:04;;;;;;;19.67;8.05;;;9.10;52.40;;;;;;4933134;29;20522;-77
2023/02/08 16:13:33;;;;;;;14.75;7.63;;;9.10;52.40;;;;;;4929832;29;20038;-77
2023/02/08 16:16:14;;;;;;;15.40;8.10;;;9.00;52.70;;;;;;4920745;29;20043;-77
2023/02/08 16:18:44;;;;;;;14.40;8.52;;;9.00;52.80;;;;;;4932432;29;20091;-78
2023/02/08 16:21:40;;;;;;;19.10;9.05;;;9.00;53.10;;;;;;4938947;29;20154;-78
2023/02/08 16:24:12;;;;;;;13.85;7.82;;;9.00;53.50;;;;;;4936564;29;20038;-77
2023/02/08 16:27:06;;;;;;;19.58;9.73;;;8.90;53.00;;;;;;4929130;29;20062;-78
2023/02/08 16:29:38;;;;;;;18.67;8.65;;;8.80;53.30;;;;;;4938214;29;20031;-78
2023/02/08 16:32:19;;;;;;;15.65;8.90;;;8.80;53.60;;;;;;4937203;29;20055;-78
2023/02/08 16:34:45;;;;;;;19.80;10.27;;;8.80;53.80;;;;;;4935280;29;20292;-77
2023/02/08 16:37:37;;;;;;;14.57;9.38;;;8.70;53.80;;;;;;4927671;29;20023;-77
2023/02/08 16:40:25;;;;;;;17.30;10.20;;;8.70;53.40;;;;;;4927369;29;20032;-78
2023/02/08 16:42:50;;;;;;;17.80;8.77;;;8.70;53.60;;;;;;4930178;29;20038;-78
2023/02/08 16:45:21;;;;;;;18.58;8.52;;;8.60;53.90;;;;;;4926717;29;20447;-78
2023/02/08 16:47:53;;;;;;;;;;;8.60;53.30;;;;;;4927347;29;20031;-77
2023/02/08 16:50:22;;;;;;;13.38;8.32;;;8.50;53.00;;;;;;4927107;29;19918;-78
2023/02/08 16:52:52;;;;;;;19.58;10.10;;;8.50;53.40;;;;;;4924614;29;20121;-86
2023/02/08 16:55:25;;;;;;;18.88;10.07;;;8.40;53.40;;;;;;4920924;29;20028;-80
2023/02/08 16:57:53;;;;;;;18.02;9.27;;;8.30;53.90;;;;;;4934333;29;20111;-80
2023/02/08 17:00:22;;;;;;;16.08;9.60;;;8.20;54.70;;;;;;4934924;29;20032;-79
2023/02/08 17:02:48;;;;;;;21.67;11.02;;;8.20;54.90;;;;;;4928231;29;20032;-79
2023/02/08 17:05:15;;;;;;;19.35;11.70;;;8.10;55.10;;;;;;4929771;29;20020;-80
2023/02/08 17:07:41;;;;;;;19.50;11.38;;;8.10;54.80;;;;;;4929198;29;20055;-80
2023/02/08 17:10:12;;;;;;;31.83;15.25;;;8.00;55.20;;;;;;4929434;29;20395;-81
2023/02/08 17:12:38;;;;;;;34.15;16.23;;;8.00;55.00;;;;;;4926344;29;20115;-79
2023/02/08 17:15:04;;;;;;;25.63;14.52;;;7.90;55.30;;;;;;4928068;29;20115;-78
2023/02/08 17:17:30;;;;;;;25.92;14.15;;;7.90;55.40;;;;;;4925971;29;20030;-78
2023/02/08 17:19:55;;;;;;;24.63;14.48;;;7.80;55.50;;;;;;4928030;29;20044;-79
2023/02/08 17:22:21;;;;;;;24.48;14.05;;;7.80;55.70;;;;;;4926686;29;20059;-79
2023/02/08 17:24:47;;;;;;;28.77;17.55;;;7.80;55.80;;;;;;4932264;29;20028;-79
2023/02/08 17:27:13;;;;;;;35.78;16.38;;;7.70;56.10;;;;;;4922879;29;20099;-80
2023/02/08 17:29:41;;;;;;;22.15;13.32;;;7.70;56.50;;;;;;4938870;29;20027;-81
2023/02/08 17:32:07;;;;;;;22.75;11.95;;;7.60;56.90;;;;;;4934777;29;20083;-81
2023/02/08 17:34:34;;;;;;;17.42;10.93;;;7.50;56.70;;;;;;4928836;29;20043;-81
2023/02/08 17:37:00;;;;;;;20.92;13.10;;;7.40;57.00;;;;;;4927899;29;20024;-81
2023/02/08 17:39:25;;;;;;;25.92;12.43;;;7.40;57.50;;;;;;4925027;29;20586;-82
2023/02/08 17:41:51;;;;;;;25.42;13.63;;;7.40;57.90;;;;;;4932269;29;20509;-81
2023/02/08 17:44:17;;;;;;;22.05;12.35;;;7.30;58.10;;;;;;4931140;29;20118;-81
2023/02/08 17:46:43;;;;;;;26.00;13.23;;;7.30;58.30;;;;;;4932467;29;20030;-80
2023/02/08 17:49:09;;;;;;;25.80;13.00;;;7.20;58.80;;;;;;4929537;29;20028;-81
2023/02/08 17:51:34;;;;;;;28.73;18.58;;;7.20;58.80;;;;;;4933214;29;20030;-81
2023/02/08 17:54:03;;;;;;;23.85;13.93;;;7.10;58.40;;;;;;4933508;29;20455;-83
2023/02/08 17:56:34;;;;;;;28.63;13.88;;;7.10;58.50;;;;;;4934230;29;20510;-82
2023/02/08 17:59:02;;;;;;;30.20;14.23;;;7.10;59.00;;;;;;4934478;29;20028;-82
2023/02/08 18:01:29;;;;;;;23.17;11.90;;;7.10;58.90;;;;;;4933794;29;20031;-82
2023/02/08 18:04:00;;;;;;;17.25;9.85;;;7.10;59.00;;;;;;4933285;29;20071;-82
2023/02/08 18:06:27;;;;;;;22.13;11.82;;;7.00;59.10;;;;;;4931099;29;20441;-82
2023/02/08 18:08:54;;;;;;;24.65;14.32;;;7.00;59.10;;;;;;4930346;29;20123;-82
2023/02/08 18:11:22;;;;;;;26.42;16.63;;;6.90;59.40;;;;;;4940772;29;20024;-82
2023/02/08 18:13:51;;;;;;;33.53;17.67;;;6.80;59.60;;;;;;4929856;29;20035;-82
2023/02/08 18:16:24;;;;;;;27.65;16.95;;;6.80;59.90;;;;;;4929329;29;20039;-82
2023/02/08 18:18:54;;;;;;;19.70;10.95;;;6.80;60.10;;;;;;4929885;29;20031;-82
2023/02/08 18:21:21;;;;;;;32.25;15.05;;;6.70;60.40;;;;;;4938140;29;20056;-82
2023/02/08 18:23:48;;;;;;;29.38;15.25;;;6.80;60.50;;;;;;4934868;29;20028;-82
2023/02/08 18:26:18;;;;;;;28.05;15.15;;;6.70;60.50;;;;;;4931589;29;20028;-83
2023/02/08 18:28:44;;;;;;;27.65;14.70;;;6.70;60.80;;;;;;4933610;29;20031;-82
2023/02/08 18:31:13;;;;;;;27.42;16.75;;;6.70;61.10;;;;;;4930491;29;20054;-82
2023/02/08 18:33:40;;;;;;;30.10;17.50;;;6.60;61.30;;;;;;4924984;29;20032;-83
2023/02/08 18:36:10;;;;;;;29.63;18.52;;;6.60;61.40;;;;;;4920152;29;20097;-82
2023/02/08 18:38:39;;;;;;;27.80;15.38;;;6.50;62.10;;;;;;4934021;29;20024;-82